createdAt,value
2023-09-28T00:01:56.674Z,9.20
2023-09-28T00:05:00.468Z,8.75
2023-09-28T00:08:06.592Z,8.75
2023-09-28T00:11:10.736Z,9.65
2023-09-28T00:14:14.521Z,8.98
2023-09-28T00:17:18.425Z,9.85
2023-09-28T00:20:24.372Z,8.77
2023-09-28T00:23:29.829Z,8.85
2023-09-28T00:26:33.802Z,8.60
2023-09-28T00:29:37.480Z,9.17
2023-09-28T00:32:42.877Z,9.00
2023-09-28T00:35:45.737Z,8.48
2023-09-28T00:38:52.134Z,8.95
2023-09-28T00:41:54.942Z,9.18
2023-09-28T00:45:00.638Z,8.23
2023-09-28T00:48:07.987Z,7.85
2023-09-28T00:51:10.643Z,8.20
2023-09-28T00:54:16.164Z,8.88
2023-09-28T00:57:19.239Z,8.40
2023-09-28T01:00:25.381Z,8.80
2023-09-28T01:03:28.579Z,8.38
2023-09-28T01:06:33.390Z,8.63
2023-09-28T01:09:39.478Z,8.45
2023-09-28T01:12:42.424Z,9.02
2023-09-28T01:15:48.898Z,8.60
2023-09-28T01:18:52.741Z,7.93
2023-09-28T01:21:57.748Z,7.47
2023-09-28T01:25:04.809Z,8.15
2023-09-28T01:28:08.417Z,8.15
2023-09-28T01:31:12.399Z,8.43
2023-09-28T01:34:15.247Z,8.38
2023-09-28T01:37:21.478Z,8.30
2023-09-28T01:40:25.776Z,7.95
2023-09-28T01:43:29.530Z,8.57
2023-09-28T01:46:32.296Z,8.07
2023-09-28T01:49:36.762Z,7.50
2023-09-28T01:52:39.520Z,8.10
2023-09-28T01:55:44.848Z,8.43
2023-09-28T01:58:50.770Z,8.48
2023-09-28T02:01:54.620Z,8.60
2023-09-28T02:04:58.973Z,8.35
2023-09-28T02:08:03.542Z,8.52
2023-09-28T02:11:08.736Z,9.05
2023-09-28T02:14:12.625Z,9.07
2023-09-28T02:17:15.531Z,9.32
2023-09-28T02:20:23.754Z,9.32
2023-09-28T02:23:27.591Z,9.43
2023-09-28T02:26:32.684Z,10.10
2023-09-28T02:29:35.608Z,9.80
2023-09-28T02:32:41.232Z,9.03
2023-09-28T02:35:45.263Z,9.60
2023-09-28T02:38:50.400Z,8.90
2023-09-28T02:41:56.909Z,8.82
2023-09-28T02:45:00.933Z,8.60
2023-09-28T02:48:05.707Z,9.13
2023-09-28T02:51:11.792Z,8.20
2023-09-28T02:54:14.801Z,7.90
2023-09-28T02:57:20.564Z,8.43
2023-09-28T03:00:25.957Z,9.30
2023-09-28T03:03:31.871Z,8.67
2023-09-28T03:06:38.502Z,8.57
2023-09-28T03:09:42.648Z,8.68
2023-09-28T03:12:48.697Z,8.52
2023-09-28T03:15:51.816Z,8.23
2023-09-28T03:18:58.330Z,8.43
2023-09-28T03:22:02.757Z,8.75
2023-09-28T03:25:11.488Z,7.90
2023-09-28T03:28:16.719Z,8.13
2023-09-28T03:31:20.885Z,9.00
2023-09-28T03:34:26.050Z,8.30
2023-09-28T03:37:30.002Z,8.40
2023-09-28T03:40:35.535Z,8.55
2023-09-28T03:43:40.732Z,8.20
2023-09-28T03:46:44.451Z,8.73
2023-09-28T03:49:48.201Z,8.20
2023-09-28T03:52:52.189Z,8.43
2023-09-28T03:55:56.358Z,8.13
2023-09-28T03:59:01.546Z,8.50
2023-09-28T04:02:06.005Z,9.13
2023-09-28T04:05:10.822Z,9.50
2023-09-28T04:08:14.641Z,8.52
2023-09-28T04:11:18.767Z,9.48
2023-09-28T04:14:23.919Z,9.80
2023-09-28T04:17:28.039Z,9.55
2023-09-28T04:20:32.042Z,9.45
2023-09-28T04:23:35.831Z,8.82
2023-09-28T04:26:39.728Z,8.27
2023-09-28T04:29:46.180Z,8.80
2023-09-28T04:32:52.105Z,8.68
2023-09-28T04:35:56.873Z,9.20
2023-09-28T04:39:00.743Z,8.90
2023-09-28T04:42:05.416Z,8.55
2023-09-28T04:45:13.172Z,8.90
2023-09-28T04:48:16.994Z,8.63
2023-09-28T04:51:20.673Z,9.45
2023-09-28T04:54:24.436Z,10.13
2023-09-28T04:57:28.809Z,8.87
2023-09-28T05:00:34.033Z,9.93
2023-09-28T05:03:38.172Z,9.07
2023-09-28T05:06:42.239Z,9.77
2023-09-28T05:09:46.308Z,9.15
2023-09-28T05:12:50.028Z,9.52
2023-09-28T05:15:55.349Z,9.57
2023-09-28T05:19:00.027Z,10.48
2023-09-28T05:22:06.684Z,9.30
2023-09-28T05:25:10.620Z,9.40
2023-09-28T05:28:14.460Z,9.70
2023-09-28T05:31:21.007Z,10.00
2023-09-28T05:34:25.647Z,9.95
2023-09-28T05:37:29.498Z,9.87
2023-09-28T05:40:33.692Z,9.45
2023-09-28T05:43:37.706Z,9.55
2023-09-28T05:46:42.821Z,9.88
2023-09-28T05:49:46.728Z,9.65
2023-09-28T05:52:53.449Z,11.10
2023-09-28T05:55:57.214Z,10.52
2023-09-28T05:59:00.888Z,10.10
2023-09-28T06:02:06.047Z,10.80
2023-09-28T06:05:11.221Z,10.75
2023-09-28T06:08:15.015Z,10.70
2023-09-28T06:11:20.008Z,11.05
2023-09-28T06:14:23.929Z,10.40
2023-09-28T06:17:29.175Z,10.95
2023-09-28T06:20:37.959Z,10.35
2023-09-28T06:23:43.728Z,11.15
2023-09-28T06:26:47.722Z,10.50
2023-09-28T06:29:54.510Z,10.57
2023-09-28T06:33:00.348Z,10.95
2023-09-28T06:36:05.204Z,10.32
2023-09-28T06:39:10.368Z,10.57
2023-09-28T06:42:30.989Z,11.20
2023-09-28T06:45:38.962Z,10.55
2023-09-28T06:48:44.265Z,11.10
2023-09-28T06:51:49.703Z,10.25
2023-09-28T06:54:53.672Z,11.38
2023-09-28T06:57:57.538Z,10.82
2023-09-28T07:01:01.406Z,10.67
2023-09-28T07:04:07.960Z,10.48
2023-09-28T07:07:14.841Z,10.63
2023-09-28T07:10:18.963Z,10.07
2023-09-28T07:13:22.737Z,10.63
2023-09-28T07:16:26.637Z,10.85
2023-09-28T07:19:32.052Z,10.98
2023-09-28T07:22:35.738Z,10.80
2023-09-28T07:25:41.502Z,11.02
2023-09-28T07:28:45.753Z,10.23
2023-09-28T07:31:49.904Z,10.50
2023-09-28T07:34:55.162Z,10.50
2023-09-28T07:37:59.052Z,9.70
2023-09-28T07:41:04.709Z,10.00
2023-09-28T07:44:08.732Z,9.57
2023-09-28T07:47:12.822Z,9.52
2023-09-28T07:50:18.712Z,9.43
2023-09-28T07:53:22.516Z,9.55
2023-09-28T07:56:26.592Z,8.77
2023-09-28T07:59:30.453Z,8.13
2023-09-28T08:02:34.626Z,7.63
2023-09-28T08:05:40.326Z,8.68
2023-09-28T08:08:44.224Z,6.13
2023-09-28T08:11:49.811Z,6.53
2023-09-28T08:14:53.933Z,6.40
2023-09-28T08:17:58.444Z,6.20
2023-09-28T08:21:10.565Z,6.47
2023-09-28T08:24:15.098Z,5.30
2023-09-28T08:27:18.881Z,5.70
2023-09-28T08:30:22.633Z,6.00
2023-09-28T08:33:26.500Z,6.00
2023-09-28T08:36:32.145Z,5.80
2023-09-28T08:39:38.247Z,5.82
2023-09-28T08:42:47.131Z,5.65
2023-09-28T08:45:54.616Z,5.22
2023-09-28T08:49:03.561Z,5.45
2023-09-28T08:52:09.313Z,5.90
2023-09-28T08:55:14.271Z,5.53
2023-09-28T08:58:19.345Z,6.37
2023-09-28T09:01:23.394Z,5.63
2023-09-28T09:04:27.534Z,5.72
2023-09-28T09:07:33.506Z,5.97
2023-09-28T09:10:39.075Z,7.43
2023-09-28T09:13:52.073Z,6.10
2023-09-28T09:16:57.379Z,6.07
2023-09-28T09:20:01.132Z,6.28
2023-09-28T09:23:15.175Z,5.18
2023-09-28T09:26:19.659Z,5.00
2023-09-28T09:29:23.711Z,4.88
2023-09-28T09:32:29.155Z,4.70
2023-09-28T09:35:32.921Z,5.28
2023-09-28T09:38:38.080Z,5.47
2023-09-28T09:41:48.124Z,4.85
2023-09-28T09:44:54.032Z,4.70
2023-09-28T09:47:58.983Z,4.90
2023-09-28T09:51:04.041Z,4.55
2023-09-28T09:54:12.796Z,4.13
2023-09-28T09:57:18.719Z,4.47
2023-09-28T10:00:25.160Z,4.28
2023-09-28T10:03:30.525Z,4.05
2023-09-28T10:06:34.853Z,3.83
2023-09-28T10:09:40.213Z,3.80
2023-09-28T10:12:44.750Z,3.80
2023-09-28T10:15:49.582Z,3.70
2023-09-28T10:18:55.684Z,3.30
2023-09-28T10:22:01.415Z,3.85
2023-09-28T10:25:07.821Z,3.23
2023-09-28T10:28:12.421Z,3.60
2023-09-28T10:31:18.567Z,3.65
2023-09-28T10:34:23.804Z,3.42
2023-09-28T10:37:28.420Z,3.70
2023-09-28T10:40:48.393Z,3.90
2023-09-28T10:43:58.447Z,3.42
2023-09-28T10:47:02.662Z,3.40
2023-09-28T10:50:09.793Z,3.25
2023-09-28T10:53:14.256Z,3.40
2023-09-28T10:56:19.960Z,3.40
2023-09-28T10:59:25.396Z,3.17
2023-09-28T11:02:32.990Z,3.60
2023-09-28T11:05:38.659Z,3.30
2023-09-28T11:08:44.690Z,3.55
2023-09-28T11:11:50.974Z,3.33
2023-09-28T11:14:57.099Z,3.58
2023-09-28T11:18:01.286Z,3.97
2023-09-28T11:21:05.689Z,3.00
2023-09-28T11:24:09.931Z,3.28
2023-09-28T11:27:15.997Z,3.60
2023-09-28T11:30:21.378Z,3.60
2023-09-28T11:33:25.137Z,4.43
2023-09-28T11:36:29.691Z,3.60
2023-09-28T11:39:34.215Z,3.30
2023-09-28T11:42:44.163Z,3.07
2023-09-28T11:45:50.462Z,3.42
2023-09-28T11:49:05.684Z,3.38
2023-09-28T11:52:09.739Z,3.63
2023-09-28T11:55:16.272Z,3.30
2023-09-28T11:58:24.890Z,2.93
2023-09-28T12:01:29.709Z,3.30
2023-09-28T12:04:33.909Z,3.08
2023-09-28T12:07:37.697Z,2.88
2023-09-28T12:10:41.509Z,2.88
2023-09-28T12:13:47.784Z,3.30
2023-09-28T12:16:53.329Z,2.90
2023-09-28T12:19:57.736Z,2.80
2023-09-28T12:23:03.781Z,3.13
2023-09-28T12:26:08.021Z,2.72
2023-09-28T12:29:13.823Z,3.13
2023-09-28T12:32:17.760Z,2.33
2023-09-28T12:35:22.648Z,2.83
2023-09-28T12:38:26.558Z,2.88
2023-09-28T12:41:31.097Z,2.35
2023-09-28T12:44:36.361Z,2.80
2023-09-28T12:47:40.475Z,2.83
2023-09-28T12:50:45.109Z,2.90
2023-09-28T12:53:48.960Z,2.80
2023-09-28T12:56:53.882Z,2.80
2023-09-28T12:59:58.997Z,2.67
2023-09-28T13:03:08.136Z,3.22
2023-09-28T13:06:12.029Z,2.85
2023-09-28T13:09:15.952Z,2.75
2023-09-28T13:12:19.799Z,2.85
2023-09-28T13:15:25.337Z,2.67
2023-09-28T13:18:30.532Z,3.03
2023-09-28T13:21:35.072Z,2.95
2023-09-28T13:24:39.144Z,2.80
2023-09-28T13:27:42.947Z,3.22
2023-09-28T13:30:48.356Z,3.07
2023-09-28T13:33:52.868Z,3.17
2023-09-28T13:36:57.469Z,3.20
2023-09-28T13:40:02.115Z,2.60
2023-09-28T13:43:07.013Z,3.25
2023-09-28T13:46:12.282Z,3.00
2023-09-28T13:49:16.488Z,3.20
2023-09-28T13:52:20.302Z,3.30
2023-09-28T13:55:24.404Z,2.97
2023-09-28T13:58:28.803Z,3.13
2023-09-28T14:01:34.115Z,3.00
2023-09-28T14:04:38.304Z,2.70
2023-09-28T14:07:42.072Z,3.08
2023-09-28T14:10:47.257Z,2.72
2023-09-28T14:13:51.278Z,3.00
2023-09-28T14:17:05.607Z,3.10
2023-09-28T14:20:16.595Z,2.70
2023-09-28T14:23:20.418Z,3.00
2023-09-28T14:26:24.362Z,2.75
2023-09-28T14:29:28.079Z,2.80
2023-09-28T14:32:33.405Z,2.70
2023-09-28T14:35:39.721Z,2.92
2023-09-28T14:38:43.414Z,2.88
2023-09-28T14:41:47.227Z,2.72
2023-09-28T14:44:53.135Z,3.10
2023-09-28T14:47:58.276Z,2.83
2023-09-28T14:51:02.160Z,3.17
2023-09-28T14:54:06.780Z,3.08
2023-09-28T14:57:11.344Z,3.63
2023-09-28T15:00:16.841Z,3.90
2023-09-28T15:03:22.950Z,3.50
2023-09-28T15:06:26.845Z,3.20
2023-09-28T15:09:30.838Z,2.70
2023-09-28T15:12:34.930Z,3.10
2023-09-28T15:15:41.100Z,3.40
2023-09-28T15:18:46.795Z,3.40
2023-09-28T15:21:50.908Z,3.30
2023-09-28T15:24:54.743Z,3.78
2023-09-28T15:27:58.583Z,4.82
2023-09-28T15:31:02.280Z,5.85
2023-09-28T15:34:07.657Z,5.70
2023-09-28T15:37:13.025Z,4.20
2023-09-28T15:40:16.913Z,3.60
2023-09-28T15:43:21.048Z,3.47
2023-09-28T15:46:24.840Z,3.40
2023-09-28T15:49:30.240Z,3.60
2023-09-28T15:52:34.345Z,3.45
2023-09-28T15:55:38.007Z,3.50
2023-09-28T15:58:41.808Z,3.97
2023-09-28T16:01:46.989Z,3.85
2023-09-28T16:04:52.170Z,3.70
2023-09-28T16:07:57.203Z,3.50
2023-09-28T16:11:01.675Z,3.75
2023-09-28T16:14:05.448Z,3.83
2023-09-28T16:17:09.996Z,3.72
2023-09-28T16:20:15.209Z,4.97
2023-09-28T16:23:19.808Z,4.03
2023-09-28T16:26:23.610Z,3.95
2023-09-28T16:29:27.789Z,3.70
2023-09-28T16:32:31.469Z,3.60
2023-09-28T16:35:36.747Z,4.03
2023-09-28T16:38:40.798Z,4.35
2023-09-28T16:41:46.241Z,4.30
2023-09-28T16:44:50.070Z,3.72
2023-09-28T16:47:54.852Z,4.00
2023-09-28T16:51:00.018Z,3.80
2023-09-28T16:54:05.259Z,4.05
2023-09-28T16:57:09.191Z,3.70
2023-09-28T17:00:14.138Z,4.00
2023-09-28T17:03:18.208Z,3.92
2023-09-28T17:06:23.452Z,4.00
2023-09-28T17:09:27.704Z,4.95
2023-09-28T17:12:43.381Z,4.55
2023-09-28T17:15:49.805Z,4.35
2023-09-28T17:18:53.943Z,4.70
2023-09-28T17:21:59.111Z,5.23
2023-09-28T17:25:03.288Z,4.70
2023-09-28T17:28:07.823Z,5.15
2023-09-28T17:31:11.834Z,4.97
2023-09-28T17:34:15.588Z,5.53
2023-09-28T17:37:21.057Z,5.25
2023-09-28T17:40:24.795Z,4.82
2023-09-28T17:43:28.741Z,5.90
2023-09-28T17:46:32.504Z,5.90
2023-09-28T17:49:36.339Z,5.78
2023-09-28T17:52:41.486Z,5.68
2023-09-28T17:55:47.110Z,6.57
2023-09-28T17:58:52.553Z,6.33
2023-09-28T18:01:57.211Z,5.78
2023-09-28T18:05:02.998Z,6.03
2023-09-28T18:08:09.018Z,6.60
2023-09-28T18:11:12.888Z,6.13
2023-09-28T18:14:17.137Z,6.30
2023-09-28T18:17:21.234Z,5.68
2023-09-28T18:20:25.315Z,5.97
2023-09-28T18:23:30.604Z,6.00
2023-09-28T18:26:34.798Z,6.17
2023-09-28T18:29:39.491Z,6.70
2023-09-28T18:32:43.277Z,6.88
2023-09-28T18:35:47.605Z,6.07
2023-09-28T18:39:07.544Z,6.93
2023-09-28T18:42:16.205Z,7.03
2023-09-28T18:45:20.041Z,6.72
2023-09-28T18:48:24.722Z,6.88
2023-09-28T18:51:28.623Z,7.10
2023-09-28T18:54:33.769Z,7.88
2023-09-28T18:57:38.002Z,7.65
2023-09-28T19:00:41.885Z,7.47
2023-09-28T19:03:45.793Z,7.20
2023-09-28T19:06:49.852Z,7.13
2023-09-28T19:09:55.548Z,7.47
2023-09-28T19:12:59.333Z,7.15
2023-09-28T19:16:06.408Z,7.78
2023-09-28T19:19:10.399Z,8.63
2023-09-28T19:22:16.915Z,8.38
2023-09-28T19:25:23.482Z,8.07
2023-09-28T19:28:28.274Z,8.27
2023-09-28T19:31:32.628Z,7.93
2023-09-28T19:34:36.238Z,8.77
2023-09-28T19:37:41.179Z,7.87
2023-09-28T19:40:46.463Z,7.75
2023-09-28T19:43:50.408Z,7.97
2023-09-28T19:46:54.335Z,8.25
2023-09-28T19:49:58.177Z,7.50
2023-09-28T19:53:02.092Z,8.02
2023-09-28T19:56:09.294Z,8.30
2023-09-28T19:59:12.978Z,8.70
2023-09-28T20:02:16.971Z,8.63
2023-09-28T20:05:20.776Z,8.82
2023-09-28T20:08:24.797Z,9.18
2023-09-28T20:11:30.037Z,9.45
2023-09-28T20:14:33.797Z,8.77
2023-09-28T20:17:38.214Z,9.00
2023-09-28T20:20:42.046Z,8.82
2023-09-28T20:23:45.696Z,8.87
2023-09-28T20:26:50.953Z,9.00
2023-09-28T20:29:55.095Z,8.93
2023-09-28T20:32:58.942Z,9.60
2023-09-28T20:36:14.036Z,10.00
2023-09-28T20:39:21.489Z,9.23
2023-09-28T20:42:31.485Z,9.38
2023-09-28T20:45:43.072Z,9.57
2023-09-28T20:48:48.417Z,9.70
2023-09-28T20:51:58.530Z,9.40
2023-09-28T20:55:06.960Z,9.55
2023-09-28T20:58:17.480Z,9.60
2023-09-28T21:01:22.712Z,9.27
2023-09-28T21:04:36.923Z,9.85
2023-09-28T21:07:46.631Z,9.90
2023-09-28T21:10:50.632Z,9.15
2023-09-28T21:13:56.205Z,8.82
2023-09-28T21:17:00.127Z,37.15
2023-09-28T21:20:04.346Z,10.50
2023-09-28T21:23:08.394Z,9.77
2023-09-28T21:26:13.241Z,10.20
2023-09-28T21:29:18.470Z,10.02
2023-09-28T21:32:22.713Z,9.93
2023-09-28T21:35:26.510Z,10.57
2023-09-28T21:38:30.360Z,9.52
2023-09-28T21:41:34.448Z,10.20
2023-09-28T21:44:39.973Z,10.18
2023-09-28T21:47:44.047Z,9.85
2023-09-28T21:50:47.885Z,10.50
2023-09-28T21:53:51.612Z,12.10
2023-09-28T21:56:55.685Z,11.02
2023-09-28T22:00:00.817Z,9.57
2023-09-28T22:03:06.655Z,10.35
2023-09-28T22:06:10.805Z,10.60
2023-09-28T22:09:15.159Z,10.80
2023-09-28T22:12:19.143Z,10.37
2023-09-28T22:15:24.898Z,9.75
2023-09-28T22:18:28.650Z,10.52
2023-09-28T22:21:32.511Z,11.10
2023-09-28T22:24:36.368Z,10.45
2023-09-28T22:27:41.008Z,11.38
2023-09-28T22:30:46.122Z,9.75
2023-09-28T22:33:50.035Z,10.73
2023-09-28T22:36:53.705Z,10.98
2023-09-28T22:40:02.832Z,10.60
2023-09-28T22:43:12.314Z,10.73
2023-09-28T22:46:17.981Z,10.52
2023-09-28T22:49:21.738Z,9.98
2023-09-28T22:52:27.226Z,10.60
2023-09-28T22:55:30.886Z,10.82
2023-09-28T22:58:34.903Z,10.43
2023-09-28T23:01:40.431Z,11.07
2023-09-28T23:04:44.175Z,10.52
2023-09-28T23:07:48.554Z,11.35
2023-09-28T23:10:55.307Z,10.88
2023-09-28T23:13:59.128Z,11.97
2023-09-28T23:17:04.284Z,11.30
2023-09-28T23:20:11.280Z,10.32
2023-09-28T23:23:17.625Z,10.90
2023-09-28T23:26:24.423Z,10.88
2023-09-28T23:29:30.028Z,11.25
2023-09-28T23:32:37.845Z,10.45
2023-09-28T23:35:42.534Z,9.98
2023-09-28T23:38:47.749Z,10.25
2023-09-28T23:41:53.622Z,10.32
2023-09-28T23:44:57.492Z,10.27
2023-09-28T23:48:05.655Z,10.23
2023-09-28T23:51:12.937Z,10.27
2023-09-28T23:54:18.259Z,10.33
2023-09-28T23:57:22.054Z,10.32
